createdAt,value
2023-01-29T00:00:22.486Z,71.50
2023-01-29T00:02:49.153Z,71.50
2023-01-29T00:05:27.473Z,71.53
2023-01-29T00:07:55.750Z,71.63
2023-01-29T00:10:22.636Z,71.60
2023-01-29T00:12:49.208Z,71.51
2023-01-29T00:15:15.785Z,71.49
2023-01-29T00:17:42.268Z,71.39
2023-01-29T00:20:09.553Z,71.27
2023-01-29T00:22:36.111Z,71.40
2023-01-29T00:25:02.772Z,71.43
2023-01-29T00:27:29.609Z,71.25
2023-01-29T00:29:56.127Z,71.21
2023-01-29T00:32:22.661Z,71.34
2023-01-29T00:34:49.166Z,71.36
2023-01-29T00:37:15.655Z,71.44
2023-01-29T00:39:48.147Z,71.55
2023-01-29T00:42:15.016Z,71.44
2023-01-29T00:44:41.525Z,71.45
2023-01-29T00:47:08.063Z,71.38
2023-01-29T00:49:34.563Z,71.36
2023-01-29T00:52:01.038Z,71.27
2023-01-29T00:54:27.519Z,71.33
2023-01-29T00:56:53.983Z,71.38
2023-01-29T00:59:20.460Z,71.30
2023-01-29T01:01:47.029Z,71.29
2023-01-29T01:04:13.959Z,71.15
2023-01-29T01:06:41.723Z,71.17
2023-01-29T01:09:09.746Z,71.33
2023-01-29T01:11:36.226Z,71.29
2023-01-29T01:14:02.707Z,71.36
2023-01-29T01:16:29.244Z,71.27
2023-01-29T01:18:55.862Z,71.37
2023-01-29T01:21:22.343Z,71.43
2023-01-29T01:23:48.825Z,71.60
2023-01-29T01:26:15.338Z,71.71
2023-01-29T01:28:41.820Z,71.81
2023-01-29T01:31:13.136Z,71.98
2023-01-29T01:33:40.328Z,72.18
2023-01-29T01:36:08.048Z,72.25
2023-01-29T01:38:34.762Z,72.44
2023-01-29T01:41:01.403Z,72.32
2023-01-29T01:43:27.927Z,72.43
2023-01-29T01:45:54.436Z,72.43
2023-01-29T01:48:26.589Z,72.56
2023-01-29T01:50:55.046Z,72.52
2023-01-29T01:53:28.845Z,72.63
2023-01-29T01:55:59.688Z,72.66
2023-01-29T01:58:31.848Z,72.71
2023-01-29T02:00:58.410Z,72.93
2023-01-29T02:03:28.278Z,72.99
2023-01-29T02:05:58.333Z,73.10
2023-01-29T02:08:32.470Z,73.22
2023-01-29T02:10:59.430Z,73.35
2023-01-29T02:13:27.059Z,73.36
2023-01-29T02:15:53.522Z,73.30
2023-01-29T02:18:21.533Z,73.37
2023-01-29T02:21:06.638Z,73.48
2023-01-29T02:23:43.741Z,73.53
2023-01-29T02:27:03.092Z,73.65
2023-01-29T02:29:39.324Z,73.81
2023-01-29T02:32:36.088Z,73.86
2023-01-29T02:35:16.745Z,73.79
2023-01-29T02:38:08.467Z,73.88
2023-01-29T02:40:47.062Z,73.85
2023-01-29T02:43:22.488Z,73.88
2023-01-29T02:46:17.207Z,74.07
2023-01-29T02:49:22.515Z,74.20
2023-01-29T02:52:14.974Z,74.28
2023-01-29T02:54:48.949Z,74.27
2023-01-29T02:57:23.116Z,74.52
2023-01-29T03:00:00.284Z,74.47
2023-01-29T03:02:35.892Z,74.53
2023-01-29T03:05:08.422Z,74.41
2023-01-29T03:07:40.533Z,74.56
2023-01-29T03:10:28.630Z,74.53
2023-01-29T03:13:01.336Z,74.42
2023-01-29T03:15:36.269Z,74.45
2023-01-29T03:18:11.330Z,74.50
2023-01-29T03:20:43.555Z,74.54
2023-01-29T03:23:19.164Z,74.45
2023-01-29T03:25:45.867Z,74.59
2023-01-29T03:28:17.494Z,74.42
2023-01-29T03:31:10.129Z,74.53
2023-01-29T03:33:43.682Z,74.65
2023-01-29T03:36:16.948Z,74.59
2023-01-29T03:38:44.577Z,74.67
2023-01-29T03:41:22.344Z,74.84
2023-01-29T03:44:00.535Z,74.72
2023-01-29T03:46:36.318Z,74.74
2023-01-29T03:49:15.277Z,74.84
2023-01-29T03:51:51.373Z,74.69
2023-01-29T03:54:46.913Z,74.55
2023-01-29T03:57:55.617Z,74.55
2023-01-29T04:00:37.945Z,74.52
2023-01-29T04:03:20.519Z,74.41
2023-01-29T04:05:58.093Z,74.16
2023-01-29T04:08:29.179Z,74.04
2023-01-29T04:10:59.407Z,74.08
2023-01-29T04:13:27.510Z,73.98
2023-01-29T04:15:58.198Z,74.11
2023-01-29T04:18:25.143Z,74.18
2023-01-29T04:20:52.747Z,74.25
2023-01-29T04:23:24.874Z,74.25
2023-01-29T04:26:04.560Z,74.27
2023-01-29T04:28:50.945Z,73.91
2023-01-29T04:31:18.127Z,73.83
2023-01-29T04:33:56.299Z,73.65
2023-01-29T04:36:52.027Z,73.76
2023-01-29T04:39:25.132Z,73.69
2023-01-29T04:41:59.302Z,73.56
2023-01-29T04:44:36.490Z,73.61
2023-01-29T04:47:25.064Z,73.48
2023-01-29T04:50:20.872Z,73.36
2023-01-29T04:53:07.954Z,73.34
2023-01-29T04:55:43.135Z,73.32
2023-01-29T04:58:15.266Z,73.53
2023-01-29T05:00:48.787Z,73.55
2023-01-29T05:03:16.795Z,73.49
2023-01-29T05:05:47.497Z,73.31
2023-01-29T05:08:17.701Z,73.45
2023-01-29T05:10:46.253Z,73.48
2023-01-29T05:13:14.987Z,73.26
2023-01-29T05:15:49.541Z,73.17
2023-01-29T05:18:16.460Z,72.85
2023-01-29T05:20:43.952Z,72.82
2023-01-29T05:23:19.166Z,72.51
2023-01-29T05:25:46.937Z,72.19
2023-01-29T05:28:13.925Z,72.02
2023-01-29T05:30:40.449Z,71.94
2023-01-29T05:33:16.720Z,71.78
2023-01-29T05:35:43.277Z,71.93
2023-01-29T05:38:10.368Z,72.10
2023-01-29T05:40:37.705Z,71.64
2023-01-29T05:43:04.659Z,71.61
2023-01-29T05:45:32.096Z,71.73
2023-01-29T05:47:59.791Z,72.08
2023-01-29T05:50:27.866Z,72.21
2023-01-29T05:52:58.996Z,71.46
2023-01-29T05:55:26.135Z,71.43
2023-01-29T05:57:52.725Z,71.51
2023-01-29T06:00:19.716Z,71.72
2023-01-29T06:02:46.206Z,71.78
2023-01-29T06:05:12.687Z,71.69
2023-01-29T06:07:39.482Z,71.76
2023-01-29T06:10:06.457Z,71.60
2023-01-29T06:12:32.981Z,71.36
2023-01-29T06:14:59.426Z,71.15
2023-01-29T06:17:25.913Z,70.85
2023-01-29T06:19:52.377Z,70.36
2023-01-29T06:22:18.950Z,70.18
2023-01-29T06:24:45.400Z,70.32
2023-01-29T06:27:11.926Z,70.27
2023-01-29T06:29:38.431Z,70.31
2023-01-29T06:32:05.286Z,70.24
2023-01-29T06:34:31.911Z,70.20
2023-01-29T06:36:58.404Z,69.62
2023-01-29T06:39:24.911Z,69.58
2023-01-29T06:41:51.397Z,69.33
2023-01-29T06:44:17.923Z,69.23
2023-01-29T06:46:44.389Z,69.06
2023-01-29T06:49:10.892Z,68.83
2023-01-29T06:51:37.440Z,68.89
2023-01-29T06:54:04.199Z,68.93
2023-01-29T06:56:30.733Z,69.17
2023-01-29T06:58:57.277Z,68.81
2023-01-29T07:01:35.626Z,68.62
2023-01-29T07:04:02.992Z,69.02
2023-01-29T07:06:30.673Z,69.00
2023-01-29T07:08:57.152Z,69.43
2023-01-29T07:11:24.029Z,69.37
2023-01-29T07:13:50.660Z,69.41
2023-01-29T07:16:17.238Z,69.40
2023-01-29T07:18:43.732Z,69.38
2023-01-29T07:21:10.255Z,69.31
2023-01-29T07:23:37.240Z,69.52
2023-01-29T07:26:06.373Z,69.46
2023-01-29T07:28:37.469Z,69.42
2023-01-29T07:31:05.392Z,69.47
2023-01-29T07:33:32.441Z,69.43
2023-01-29T07:35:58.988Z,69.54
2023-01-29T07:38:25.828Z,69.60
2023-01-29T07:40:53.076Z,69.82
2023-01-29T07:43:19.928Z,69.62
2023-01-29T07:45:46.528Z,69.31
2023-01-29T07:48:13.888Z,69.26
2023-01-29T07:50:41.144Z,69.16
2023-01-29T07:53:10.028Z,69.28
2023-01-29T07:55:36.513Z,69.31
2023-01-29T07:58:03.509Z,69.53
2023-01-29T08:00:32.024Z,69.65
2023-01-29T08:03:06.242Z,69.50
2023-01-29T08:05:33.286Z,69.28
2023-01-29T08:08:06.559Z,69.48
2023-01-29T08:10:35.759Z,69.20
2023-01-29T08:13:03.207Z,68.79
2023-01-29T08:15:30.409Z,68.92
2023-01-29T08:17:58.486Z,68.84
2023-01-29T08:20:25.949Z,69.05
2023-01-29T08:23:03.983Z,68.59
2023-01-29T08:25:30.646Z,68.44
2023-01-29T08:27:58.563Z,68.53
2023-01-29T08:30:29.918Z,68.65
2023-01-29T08:32:56.388Z,68.58
2023-01-29T08:35:23.124Z,68.55
2023-01-29T08:37:54.144Z,68.19
2023-01-29T08:40:21.321Z,67.85
2023-01-29T08:42:47.926Z,67.80
2023-01-29T08:45:14.432Z,67.27
2023-01-29T08:47:48.890Z,67.55
2023-01-29T08:50:16.985Z,67.70
2023-01-29T08:52:44.107Z,67.27
2023-01-29T08:55:11.304Z,67.52
2023-01-29T08:57:39.068Z,67.73
2023-01-29T09:00:08.288Z,67.59
2023-01-29T09:02:34.967Z,67.49
2023-01-29T09:05:01.574Z,67.41
2023-01-29T09:07:29.686Z,67.40
2023-01-29T09:09:56.188Z,67.72
2023-01-29T09:12:22.725Z,67.88
2023-01-29T09:14:49.226Z,67.73
2023-01-29T09:17:15.763Z,67.53
2023-01-29T09:19:42.199Z,67.52
2023-01-29T09:22:10.905Z,67.52
2023-01-29T09:24:38.060Z,67.35
2023-01-29T09:27:04.552Z,66.61
2023-01-29T09:29:31.050Z,66.24
2023-01-29T09:31:57.622Z,66.31
2023-01-29T09:34:24.198Z,66.43
2023-01-29T09:36:52.650Z,66.34
2023-01-29T09:39:19.099Z,66.21
2023-01-29T09:41:57.093Z,66.09
2023-01-29T09:44:45.288Z,65.83
2023-01-29T09:47:15.946Z,65.88
2023-01-29T09:49:58.278Z,65.72
2023-01-29T09:52:33.182Z,65.87
2023-01-29T09:55:05.913Z,65.81
2023-01-29T09:57:46.480Z,65.61
2023-01-29T10:00:23.261Z,65.43
2023-01-29T10:02:58.923Z,65.27
2023-01-29T10:05:31.159Z,65.30
2023-01-29T10:08:16.441Z,65.50
2023-01-29T10:11:04.543Z,64.83
2023-01-29T10:14:06.685Z,65.13
2023-01-29T10:16:57.965Z,65.17
2023-01-29T10:19:52.358Z,64.72
2023-01-29T10:22:37.681Z,64.13
2023-01-29T10:25:10.146Z,64.25
2023-01-29T10:27:41.065Z,64.03
2023-01-29T10:30:21.742Z,63.45
2023-01-29T10:32:48.750Z,63.03
2023-01-29T10:35:23.580Z,63.40
2023-01-29T10:37:53.234Z,63.09
2023-01-29T10:40:40.869Z,63.17
2023-01-29T10:43:29.589Z,63.09
2023-01-29T10:46:37.619Z,62.67
2023-01-29T10:49:28.263Z,62.29
2023-01-29T10:52:25.028Z,62.43
2023-01-29T10:54:51.491Z,62.39
2023-01-29T10:57:56.576Z,62.57
2023-01-29T11:00:30.223Z,62.34
2023-01-29T11:02:57.063Z,62.61
2023-01-29T11:05:34.131Z,62.29
2023-01-29T11:08:10.166Z,62.37
2023-01-29T11:10:50.275Z,62.60
2023-01-29T11:13:18.127Z,62.38
2023-01-29T11:15:44.823Z,62.35
2023-01-29T11:18:14.413Z,62.26
2023-01-29T11:20:45.788Z,62.17
2023-01-29T11:23:33.397Z,62.34
2023-01-29T11:26:00.999Z,62.52
2023-01-29T11:28:42.134Z,61.99
2023-01-29T11:31:22.721Z,62.31
2023-01-29T11:33:52.225Z,62.21
2023-01-29T11:36:29.626Z,62.62
2023-01-29T11:39:26.490Z,61.87
2023-01-29T11:42:01.081Z,61.73
2023-01-29T11:44:40.069Z,61.18
2023-01-29T11:47:19.093Z,60.81
2023-01-29T11:49:49.278Z,60.84
2023-01-29T11:52:19.168Z,60.06
2023-01-29T11:54:57.750Z,59.87
2023-01-29T11:57:25.352Z,59.90
2023-01-29T11:59:53.680Z,59.80
2023-01-29T12:02:26.114Z,60.17
2023-01-29T12:04:55.420Z,59.05
2023-01-29T12:07:22.476Z,59.35
2023-01-29T12:09:59.719Z,58.85
2023-01-29T12:12:31.921Z,59.17
2023-01-29T12:15:16.941Z,59.07
2023-01-29T12:17:51.023Z,58.89
2023-01-29T12:20:25.504Z,59.53
2023-01-29T12:23:02.595Z,58.53
2023-01-29T12:25:50.359Z,59.10
2023-01-29T12:28:30.158Z,59.32
2023-01-29T12:31:35.458Z,58.71
2023-01-29T12:34:08.328Z,58.00
2023-01-29T12:36:50.366Z,58.63
2023-01-29T12:39:17.507Z,57.23
2023-01-29T12:41:52.818Z,58.20
2023-01-29T12:44:28.509Z,58.35
2023-01-29T12:46:59.434Z,57.84
2023-01-29T12:49:30.640Z,58.33
2023-01-29T12:52:11.887Z,58.11
2023-01-29T12:54:43.222Z,58.10
2023-01-29T12:57:24.216Z,57.80
2023-01-29T12:59:58.218Z,57.16
2023-01-29T13:02:35.175Z,57.07
2023-01-29T13:05:37.688Z,57.12
2023-01-29T13:08:08.791Z,57.50
2023-01-29T13:10:41.297Z,57.10
2023-01-29T13:13:34.702Z,57.33
2023-01-29T13:16:05.453Z,57.48
2023-01-29T13:18:40.827Z,57.14
2023-01-29T13:21:13.256Z,56.75
2023-01-29T13:23:45.059Z,57.09
2023-01-29T13:26:13.812Z,57.03
2023-01-29T13:28:44.596Z,56.58
2023-01-29T13:31:33.604Z,55.95
2023-01-29T13:34:21.744Z,55.91
2023-01-29T13:36:51.779Z,55.97
2023-01-29T13:39:29.722Z,56.38
2023-01-29T13:41:58.133Z,56.40
2023-01-29T13:44:29.507Z,56.38
2023-01-29T13:47:03.434Z,54.88
2023-01-29T13:49:35.291Z,54.45
2023-01-29T13:52:43.428Z,52.73
2023-01-29T13:55:19.405Z,50.60
2023-01-29T13:57:45.974Z,50.70
2023-01-29T14:00:21.587Z,50.04
2023-01-29T14:03:00.250Z,49.76
2023-01-29T14:05:29.801Z,48.77
2023-01-29T14:08:05.825Z,49.79
2023-01-29T14:10:34.263Z,50.32
2023-01-29T14:13:03.881Z,49.36
2023-01-29T14:15:36.221Z,50.01
2023-01-29T14:18:09.012Z,50.47
2023-01-29T14:20:45.652Z,50.59
2023-01-29T14:23:29.196Z,50.62
2023-01-29T14:25:57.353Z,50.92
2023-01-29T14:28:28.240Z,51.40
2023-01-29T14:30:55.564Z,51.92
2023-01-29T14:33:34.653Z,52.41
2023-01-29T14:36:06.389Z,52.61
2023-01-29T14:38:33.821Z,52.90
2023-01-29T14:41:25.577Z,53.52
2023-01-29T14:43:52.107Z,53.36
2023-01-29T14:46:33.696Z,53.53
2023-01-29T14:49:01.134Z,54.12
2023-01-29T14:51:34.375Z,54.12
2023-01-29T14:54:00.831Z,54.54
2023-01-29T14:56:45.658Z,54.68
2023-01-29T14:59:27.866Z,55.40
2023-01-29T15:01:56.917Z,55.51
2023-01-29T15:04:43.621Z,55.65
2023-01-29T15:07:10.023Z,56.24
2023-01-29T15:09:47.951Z,56.44
2023-01-29T15:12:20.592Z,56.82
2023-01-29T15:15:10.309Z,57.09
2023-01-29T15:17:46.468Z,57.47
2023-01-29T15:20:35.579Z,57.75
2023-01-29T15:23:04.027Z,58.07
2023-01-29T15:25:47.303Z,58.16
2023-01-29T15:28:13.798Z,58.40
2023-01-29T15:30:40.476Z,58.62
2023-01-29T15:33:10.505Z,58.87
2023-01-29T15:35:39.626Z,59.07
2023-01-29T15:38:23.718Z,59.19
2023-01-29T15:41:01.489Z,59.30
2023-01-29T15:43:36.448Z,59.37
2023-01-29T15:46:07.096Z,59.54
2023-01-29T15:48:40.521Z,59.92
2023-01-29T15:51:19.652Z,59.99
2023-01-29T15:53:51.882Z,60.00
2023-01-29T15:56:21.559Z,60.21
2023-01-29T15:58:50.020Z,60.25
2023-01-29T16:01:17.094Z,60.60
2023-01-29T16:03:44.956Z,60.70
2023-01-29T16:06:11.882Z,60.83
2023-01-29T16:08:39.967Z,60.94
2023-01-29T16:11:08.734Z,60.88
2023-01-29T16:13:41.201Z,61.08
2023-01-29T16:16:23.739Z,61.41
2023-01-29T16:18:59.510Z,61.54
2023-01-29T16:21:35.264Z,61.57
2023-01-29T16:24:03.298Z,61.67
2023-01-29T16:26:36.810Z,61.69
2023-01-29T16:29:12.141Z,61.85
2023-01-29T16:31:40.003Z,61.78
2023-01-29T16:34:18.290Z,61.81
2023-01-29T16:36:49.033Z,61.67
2023-01-29T16:39:26.480Z,61.61
2023-01-29T16:42:11.110Z,61.76
2023-01-29T16:44:45.461Z,61.90
2023-01-29T16:47:13.978Z,61.72
2023-01-29T16:49:40.417Z,61.79
2023-01-29T16:52:28.840Z,61.65
2023-01-29T16:55:12.012Z,61.89
2023-01-29T16:57:40.336Z,62.19
2023-01-29T17:00:12.000Z,62.33
2023-01-29T17:02:39.329Z,61.98
2023-01-29T17:05:09.677Z,62.01
2023-01-29T17:07:36.955Z,62.34
2023-01-29T17:10:06.366Z,62.20
2023-01-29T17:12:33.900Z,62.05
2023-01-29T17:15:04.006Z,62.36
2023-01-29T17:17:31.817Z,62.51
2023-01-29T17:20:15.751Z,62.45
2023-01-29T17:22:42.366Z,62.67
2023-01-29T17:25:13.322Z,62.63
2023-01-29T17:27:44.168Z,62.71
2023-01-29T17:30:18.182Z,62.77
2023-01-29T17:32:47.527Z,62.37
2023-01-29T17:35:16.027Z,61.98
2023-01-29T17:37:43.012Z,62.03
2023-01-29T17:40:45.594Z,61.87
2023-01-29T17:43:12.230Z,62.06
2023-01-29T17:45:40.172Z,61.97
2023-01-29T17:48:24.162Z,62.05
2023-01-29T17:50:53.511Z,62.17
2023-01-29T17:53:26.529Z,62.04
2023-01-29T17:55:57.246Z,61.96
2023-01-29T17:58:25.926Z,62.20
2023-01-29T18:00:53.503Z,62.39
2023-01-29T18:03:20.848Z,62.62
2023-01-29T18:05:49.057Z,62.67
2023-01-29T18:08:22.075Z,62.92
2023-01-29T18:10:48.520Z,63.13
2023-01-29T18:13:14.988Z,63.33
2023-01-29T18:15:41.562Z,63.52
2023-01-29T18:18:13.633Z,63.49
2023-01-29T18:20:40.274Z,63.63
2023-01-29T18:23:08.154Z,63.66
2023-01-29T18:25:35.058Z,63.79
2023-01-29T18:28:02.500Z,63.69
2023-01-29T18:30:29.079Z,63.84
2023-01-29T18:32:55.682Z,63.87
2023-01-29T18:35:22.185Z,63.78
2023-01-29T18:37:48.684Z,63.94
2023-01-29T18:40:15.681Z,63.97
2023-01-29T18:42:42.259Z,63.97
2023-01-29T18:45:09.211Z,63.84
2023-01-29T18:47:35.723Z,63.88
2023-01-29T18:50:02.220Z,63.95
2023-01-29T18:52:28.719Z,63.81
2023-01-29T18:54:55.278Z,63.88
2023-01-29T18:58:27.239Z,63.63
2023-01-29T19:00:09.150Z,63.77
2023-01-29T19:02:35.732Z,63.91
2023-01-29T19:05:02.408Z,63.77
2023-01-29T19:07:29.228Z,63.78
2023-01-29T19:09:55.765Z,63.96
2023-01-29T19:12:23.235Z,64.08
2023-01-29T19:14:49.787Z,64.10
2023-01-29T19:17:16.312Z,64.04
2023-01-29T19:19:43.070Z,64.21
2023-01-29T19:22:09.569Z,64.23
2023-01-29T19:24:36.027Z,64.41
2023-01-29T19:27:02.576Z,64.33
2023-01-29T19:29:29.123Z,64.47
2023-01-29T19:31:55.728Z,64.46
2023-01-29T19:34:22.203Z,64.51
2023-01-29T19:36:48.691Z,64.58
2023-01-29T19:39:15.211Z,64.66
2023-01-29T19:41:41.752Z,64.76
2023-01-29T19:44:08.405Z,64.97
2023-01-29T19:46:34.950Z,65.06
2023-01-29T19:49:01.868Z,64.85
2023-01-29T19:51:29.314Z,64.91
2023-01-29T19:53:55.961Z,64.74
2023-01-29T19:56:22.521Z,64.89
2023-01-29T19:58:48.989Z,64.76
2023-01-29T20:01:16.814Z,64.94
2023-01-29T20:03:44.404Z,65.14
2023-01-29T20:06:10.867Z,64.94
2023-01-29T20:08:37.486Z,64.92
2023-01-29T20:11:04.259Z,65.11
2023-01-29T20:13:31.499Z,65.20
2023-01-29T20:15:58.190Z,65.17
2023-01-29T20:18:24.713Z,65.22
2023-01-29T20:20:51.537Z,65.17
2023-01-29T20:23:31.826Z,65.22
2023-01-29T20:26:03.754Z,65.18
2023-01-29T20:28:33.068Z,65.05
2023-01-29T20:30:59.733Z,65.09
2023-01-29T20:33:26.955Z,65.11
2023-01-29T20:35:58.303Z,65.20
2023-01-29T20:38:25.908Z,65.33
2023-01-29T20:40:52.371Z,65.33
2023-01-29T20:43:18.848Z,65.48
2023-01-29T20:45:45.358Z,65.63
2023-01-29T20:48:11.935Z,65.51
2023-01-29T20:50:38.557Z,65.53
2023-01-29T20:53:05.037Z,65.54
2023-01-29T20:55:31.692Z,65.47
2023-01-29T20:58:06.377Z,65.34
2023-01-29T21:00:33.487Z,65.31
2023-01-29T21:03:01.301Z,65.32
2023-01-29T21:05:27.780Z,65.45
2023-01-29T21:07:54.251Z,65.71
2023-01-29T21:10:20.768Z,65.53
2023-01-29T21:12:47.266Z,65.53
2023-01-29T21:15:13.755Z,65.93
2023-01-29T21:17:40.263Z,66.07
2023-01-29T21:20:07.314Z,66.02
2023-01-29T21:22:34.075Z,65.99
2023-01-29T21:25:00.632Z,65.92
2023-01-29T21:27:27.119Z,66.01
2023-01-29T21:29:53.612Z,65.96
2023-01-29T21:32:20.116Z,66.07
2023-01-29T21:34:46.587Z,65.98
2023-01-29T21:37:13.191Z,65.92
2023-01-29T21:39:39.658Z,65.94
2023-01-29T21:42:06.274Z,65.93
2023-01-29T21:44:34.089Z,66.12
2023-01-29T21:47:01.044Z,66.35
2023-01-29T21:49:27.743Z,66.30
2023-01-29T21:51:54.239Z,66.29
2023-01-29T21:54:20.725Z,66.42
2023-01-29T21:56:47.324Z,66.30
2023-01-29T21:59:13.930Z,66.36
2023-01-29T22:01:40.416Z,66.31
2023-01-29T22:04:06.962Z,66.36
2023-01-29T22:06:36.162Z,66.30
2023-01-29T22:09:02.867Z,66.34
2023-01-29T22:11:29.573Z,66.44
2023-01-29T22:13:56.028Z,66.52
2023-01-29T22:16:22.566Z,66.48
2023-01-29T22:18:49.467Z,66.57
2023-01-29T22:21:15.940Z,66.52
2023-01-29T22:23:42.503Z,66.67
2023-01-29T22:26:10.868Z,66.60
2023-01-29T22:28:37.387Z,66.64
2023-01-29T22:31:05.495Z,66.81
2023-01-29T22:33:32.379Z,66.81
2023-01-29T22:35:59.655Z,66.86
2023-01-29T22:38:26.203Z,66.89
2023-01-29T22:40:54.081Z,66.84
2023-01-29T22:43:21.615Z,66.90
2023-01-29T22:45:48.406Z,66.72
2023-01-29T22:48:15.478Z,66.92
2023-01-29T22:50:41.946Z,66.72
2023-01-29T22:53:08.960Z,66.84
2023-01-29T22:55:35.415Z,66.66
2023-01-29T22:58:01.908Z,66.36
2023-01-29T23:00:28.412Z,66.40
2023-01-29T23:02:54.926Z,66.42
2023-01-29T23:05:21.409Z,66.28
2023-01-29T23:07:47.921Z,66.46
2023-01-29T23:10:15.040Z,66.25
2023-01-29T23:12:41.686Z,66.53
2023-01-29T23:15:08.446Z,66.41
2023-01-29T23:17:34.978Z,66.48
2023-01-29T23:20:01.777Z,66.60
2023-01-29T23:22:29.451Z,66.60
2023-01-29T23:24:55.953Z,66.58
2023-01-29T23:27:22.417Z,66.54
2023-01-29T23:29:49.042Z,66.45
2023-01-29T23:32:19.983Z,66.56
2023-01-29T23:34:46.521Z,66.66
2023-01-29T23:37:13.620Z,66.66
2023-01-29T23:39:40.171Z,66.65
2023-01-29T23:42:06.687Z,66.51
2023-01-29T23:44:33.454Z,66.72
2023-01-29T23:46:59.975Z,66.71
2023-01-29T23:49:26.800Z,66.61
2023-01-29T23:51:53.356Z,66.55
2023-01-29T23:54:19.844Z,66.48
2023-01-29T23:56:46.361Z,66.81
2023-01-29T23:59:13.055Z,66.81
